createdAt,value
2023-05-14T00:00:48.402Z,8.48
2023-05-14T00:03:17.948Z,7.35
2023-05-14T00:05:47.422Z,7.95
2023-05-14T00:08:16.863Z,7.28
2023-05-14T00:10:46.286Z,8.78
2023-05-14T00:13:15.650Z,8.80
2023-05-14T00:15:45.132Z,7.97
2023-05-14T00:18:14.689Z,7.43
2023-05-14T00:20:44.251Z,7.70
2023-05-14T00:23:13.704Z,7.13
2023-05-14T00:25:43.107Z,7.17
2023-05-14T00:28:12.486Z,7.97
2023-05-14T00:30:42.015Z,7.60
2023-05-14T00:33:11.376Z,6.93
2023-05-14T00:35:40.921Z,7.65
2023-05-14T00:38:12.192Z,7.60
2023-05-14T00:40:43.569Z,9.50
2023-05-14T00:43:13.361Z,10.60
2023-05-14T00:45:43.023Z,11.38
2023-05-14T00:48:12.632Z,12.10
2023-05-14T00:50:42.124Z,12.87
2023-05-14T00:53:12.730Z,13.20
2023-05-14T00:58:13.992Z,12.60
2023-05-14T01:00:43.936Z,12.13
2023-05-14T01:03:13.481Z,10.72
2023-05-14T01:05:54.676Z,9.68
2023-05-14T01:08:43.563Z,9.20
2023-05-14T01:11:21.649Z,8.83
2023-05-14T01:13:59.939Z,9.60
2023-05-14T01:16:31.919Z,9.80
2023-05-14T01:19:02.829Z,12.53
2023-05-14T01:21:38.694Z,13.48
2023-05-14T01:24:09.265Z,12.40
2023-05-14T01:26:38.845Z,10.58
2023-05-14T01:29:24.398Z,9.67
2023-05-14T01:31:56.992Z,8.93
2023-05-14T01:34:29.256Z,7.62
2023-05-14T01:36:59.552Z,8.73
2023-05-14T01:41:58.223Z,8.88
2023-05-14T01:44:27.873Z,8.65
2023-05-14T01:46:57.503Z,9.23
2023-05-14T01:49:26.918Z,9.25
2023-05-14T01:51:56.449Z,8.93
2023-05-14T01:54:26.300Z,8.15
2023-05-14T01:56:55.711Z,8.70
2023-05-14T01:59:25.255Z,8.43
2023-05-14T02:01:55.106Z,9.13
2023-05-14T02:04:24.649Z,9.00
2023-05-14T02:06:54.580Z,9.90
2023-05-14T02:09:25.875Z,9.63
2023-05-14T02:11:55.316Z,9.23
2023-05-14T02:14:24.807Z,9.90
2023-05-14T02:16:54.236Z,9.88
2023-05-14T02:19:24.392Z,10.03
2023-05-14T02:21:54.013Z,9.18
2023-05-14T02:24:23.536Z,8.95
2023-05-14T02:26:52.942Z,8.37
2023-05-14T02:29:22.407Z,7.55
2023-05-14T02:31:51.945Z,9.45
2023-05-14T02:37:51.863Z,9.18
2023-05-14T02:40:21.363Z,10.10
2023-05-14T02:42:50.928Z,10.60
2023-05-14T02:45:21.531Z,9.37
2023-05-14T02:47:51.120Z,8.43
2023-05-14T02:50:20.632Z,9.90
2023-05-14T02:52:50.098Z,9.55
2023-05-14T02:55:19.665Z,9.90
2023-05-14T02:57:49.142Z,9.73
2023-05-14T03:00:18.889Z,7.83
2023-05-14T03:02:49.131Z,9.10
2023-05-14T03:05:20.016Z,9.20
2023-05-14T03:07:50.402Z,8.60
2023-05-14T03:12:49.314Z,9.48
2023-05-14T03:17:47.318Z,8.23
2023-05-14T03:20:17.668Z,9.10
2023-05-14T03:22:48.158Z,8.68
2023-05-14T03:25:17.681Z,9.68
2023-05-14T03:27:47.105Z,9.23
2023-05-14T03:30:16.676Z,9.43
2023-05-14T03:33:05.534Z,10.23
2023-05-14T03:35:34.925Z,8.08
2023-05-14T03:38:04.377Z,9.47
2023-05-14T03:43:03.374Z,8.60
2023-05-14T03:45:34.110Z,9.97
2023-05-14T03:48:03.766Z,10.03
2023-05-14T03:50:33.716Z,9.78
2023-05-14T03:53:03.235Z,9.97
2023-05-14T03:55:32.585Z,10.63
2023-05-14T03:58:02.612Z,10.25
2023-05-14T04:00:32.047Z,11.22
2023-05-14T04:03:01.686Z,9.35
2023-05-14T04:05:31.093Z,10.53
2023-05-14T04:08:00.842Z,11.48
2023-05-14T04:10:30.435Z,12.28
2023-05-14T04:13:01.417Z,11.28
2023-05-14T04:15:32.610Z,11.20
2023-05-14T04:18:02.280Z,10.77
2023-05-14T04:20:31.922Z,10.88
2023-05-14T04:23:01.342Z,12.30
2023-05-14T04:25:30.749Z,10.48
2023-05-14T04:28:00.458Z,11.97
2023-05-14T04:30:30.101Z,11.55
2023-05-14T04:32:59.605Z,12.07
2023-05-14T04:35:29.213Z,11.93
2023-05-14T04:37:58.691Z,11.57
2023-05-14T04:40:28.058Z,11.20
2023-05-14T04:42:57.678Z,12.40
2023-05-14T04:45:27.064Z,10.90
2023-05-14T04:47:56.592Z,11.38
2023-05-14T04:50:26.523Z,10.95
2023-05-14T04:52:56.172Z,12.47
2023-05-14T04:55:25.747Z,10.40
2023-05-14T04:57:55.267Z,10.60
2023-05-14T05:00:24.921Z,10.70
2023-05-14T05:02:54.488Z,11.03
2023-05-14T05:05:24.735Z,10.23
2023-05-14T05:07:54.222Z,10.25
2023-05-14T05:10:24.018Z,10.20
2023-05-14T05:12:53.534Z,9.95
2023-05-14T05:15:24.167Z,10.88
2023-05-14T05:17:53.980Z,9.40
2023-05-14T05:20:25.000Z,10.53
2023-05-14T05:22:54.785Z,8.43
2023-05-14T05:25:24.237Z,9.13
2023-05-14T05:27:53.723Z,8.87
2023-05-14T05:30:23.421Z,8.23
2023-05-14T05:32:53.087Z,9.53
2023-05-14T05:35:22.492Z,8.80
2023-05-14T05:37:51.987Z,9.00
2023-05-14T05:40:21.518Z,9.37
2023-05-14T05:42:51.199Z,9.20
2023-05-14T05:45:20.608Z,8.03
2023-05-14T05:47:50.098Z,9.35
2023-05-14T05:50:20.063Z,8.48
2023-05-14T05:52:49.787Z,8.85
2023-05-14T05:55:19.359Z,9.08
2023-05-14T05:57:48.752Z,9.80
2023-05-14T06:00:18.962Z,10.25
2023-05-14T06:02:48.065Z,8.30
2023-05-14T06:05:17.588Z,8.90
2023-05-14T06:07:46.971Z,8.93
2023-05-14T06:10:16.398Z,8.43
2023-05-14T06:12:45.928Z,8.08
2023-05-14T06:15:15.901Z,8.20
2023-05-14T06:17:45.802Z,8.23
2023-05-14T06:20:15.412Z,6.90
2023-05-14T06:22:44.836Z,8.08
2023-05-14T06:25:14.350Z,8.25
2023-05-14T06:27:44.094Z,6.03
2023-05-14T06:30:14.178Z,5.90
2023-05-14T06:32:43.730Z,7.15
2023-05-14T06:35:13.305Z,7.30
2023-05-14T06:37:42.650Z,6.03
2023-05-14T06:40:12.756Z,6.05
2023-05-14T06:42:42.329Z,6.08
2023-05-14T06:45:12.478Z,5.40
2023-05-14T06:47:41.975Z,6.72
2023-05-14T06:50:11.792Z,6.63
2023-05-14T06:52:41.382Z,6.80
2023-05-14T06:55:11.065Z,6.20
2023-05-14T06:57:40.892Z,5.58
2023-05-14T07:00:11.230Z,5.45
2023-05-14T07:02:40.697Z,5.62
2023-05-14T07:05:10.796Z,6.17
2023-05-14T07:07:40.201Z,5.35
2023-05-14T07:10:09.851Z,6.13
2023-05-14T07:12:39.324Z,5.25
2023-05-14T07:15:09.728Z,4.40
2023-05-14T07:17:39.253Z,4.87
2023-05-14T07:20:09.250Z,4.67
2023-05-14T07:22:38.617Z,4.95
2023-05-14T07:25:08.372Z,5.62
2023-05-14T07:27:37.787Z,4.67
2023-05-14T07:30:08.057Z,4.70
2023-05-14T07:35:06.826Z,4.35
2023-05-14T07:37:36.423Z,4.15
2023-05-14T07:40:06.256Z,4.67
2023-05-14T07:42:37.316Z,3.60
2023-05-14T07:45:07.400Z,4.12
2023-05-14T07:47:37.012Z,3.50
2023-05-14T07:50:06.952Z,3.50
2023-05-14T07:52:36.468Z,3.72
2023-05-14T07:55:06.752Z,4.20
2023-05-14T08:00:07.061Z,2.90
2023-05-14T08:02:38.213Z,3.72
2023-05-14T08:05:08.267Z,3.30
2023-05-14T08:07:37.742Z,3.65
2023-05-14T08:10:07.987Z,4.20
2023-05-14T08:12:37.584Z,3.20
2023-05-14T08:15:08.139Z,3.13
2023-05-14T08:17:37.561Z,3.45
2023-05-14T08:20:09.028Z,2.77
2023-05-14T08:22:38.475Z,4.17
2023-05-14T08:25:08.228Z,3.60
2023-05-14T08:27:38.521Z,4.17
2023-05-14T08:32:38.471Z,4.30
2023-05-14T08:35:08.640Z,3.22
2023-05-14T08:37:38.097Z,3.17
2023-05-14T08:40:08.684Z,3.83
2023-05-14T08:42:44.465Z,3.87
2023-05-14T08:45:22.007Z,3.62
2023-05-14T08:47:52.233Z,3.17
2023-05-14T08:52:52.502Z,3.47
2023-05-14T08:55:22.703Z,3.12
2023-05-14T08:57:52.562Z,3.20
2023-05-14T09:00:23.105Z,3.77
2023-05-14T09:02:53.011Z,3.52
2023-05-14T09:05:23.030Z,3.40
2023-05-14T09:07:52.536Z,3.40
2023-05-14T09:10:22.628Z,2.72
2023-05-14T09:12:52.546Z,3.12
2023-05-14T09:15:22.024Z,2.95
2023-05-14T09:17:51.709Z,2.93
2023-05-14T09:20:22.722Z,3.90
2023-05-14T09:22:56.646Z,2.90
2023-05-14T09:25:28.454Z,3.08
2023-05-14T09:27:59.063Z,2.80
2023-05-14T09:30:28.678Z,3.27
2023-05-14T09:32:58.171Z,3.23
2023-05-14T09:35:27.595Z,3.22
2023-05-14T09:37:57.081Z,3.33
2023-05-14T09:40:26.856Z,2.93
2023-05-14T09:42:56.576Z,3.10
2023-05-14T09:45:26.050Z,2.93
2023-05-14T09:47:55.679Z,3.30
2023-05-14T09:50:26.353Z,3.42
2023-05-14T09:52:56.929Z,3.55
2023-05-14T09:55:27.456Z,3.40
2023-05-14T09:57:56.950Z,3.52
2023-05-14T10:00:26.805Z,3.10
2023-05-14T10:02:58.078Z,3.22
2023-05-14T10:05:28.770Z,3.10
2023-05-14T10:08:00.063Z,2.85
2023-05-14T10:10:30.765Z,4.10
2023-05-14T10:13:05.682Z,3.12
2023-05-14T10:15:47.070Z,3.20
2023-05-14T10:18:20.941Z,4.72
2023-05-14T10:20:55.987Z,3.05
2023-05-14T10:23:25.423Z,3.33
2023-05-14T10:25:55.151Z,3.73
2023-05-14T10:28:24.927Z,2.90
2023-05-14T10:30:55.543Z,3.55
2023-05-14T10:33:24.947Z,3.20
2023-05-14T10:36:06.498Z,3.53
2023-05-14T10:38:58.516Z,2.67
2023-05-14T10:41:28.005Z,3.30
2023-05-14T10:44:00.679Z,4.93
2023-05-14T10:46:30.677Z,3.60
2023-05-14T10:49:00.560Z,3.33
2023-05-14T10:51:31.585Z,3.50
2023-05-14T10:54:02.435Z,4.42
2023-05-14T10:56:32.069Z,3.25
2023-05-14T10:59:01.634Z,3.67
2023-05-14T11:01:32.673Z,3.02
2023-05-14T11:04:03.856Z,3.50
2023-05-14T11:06:34.006Z,3.05
2023-05-14T11:09:04.008Z,3.02
2023-05-14T11:11:33.669Z,3.08
2023-05-14T11:14:03.228Z,2.87
2023-05-14T11:16:32.838Z,3.52
2023-05-14T11:19:04.015Z,2.70
2023-05-14T11:21:33.723Z,3.60
2023-05-14T11:24:04.921Z,3.50
2023-05-14T11:26:35.309Z,3.37
2023-05-14T11:29:06.292Z,3.10
2023-05-14T11:31:36.902Z,3.47
2023-05-14T11:34:08.540Z,3.12
2023-05-14T11:36:38.728Z,3.98
2023-05-14T11:39:08.260Z,3.80
2023-05-14T11:41:37.869Z,2.77
2023-05-14T11:44:09.188Z,3.20
2023-05-14T11:46:38.877Z,3.35
2023-05-14T11:49:08.439Z,3.47
2023-05-14T11:51:37.855Z,2.75
2023-05-14T11:54:07.268Z,2.90
2023-05-14T11:56:36.832Z,3.37
2023-05-14T11:59:06.399Z,3.45
2023-05-14T12:01:39.183Z,3.10
2023-05-14T12:04:08.967Z,3.67
2023-05-14T12:06:40.295Z,4.37
2023-05-14T12:09:11.402Z,8.08
2023-05-14T12:11:40.812Z,4.72
2023-05-14T12:14:15.410Z,4.50
2023-05-14T12:16:48.378Z,3.42
2023-05-14T12:19:20.281Z,4.20
2023-05-14T12:21:51.758Z,3.98
2023-05-14T12:24:21.299Z,5.08
2023-05-14T12:26:52.593Z,3.80
2023-05-14T12:29:22.816Z,2.83
2023-05-14T12:31:52.297Z,3.25
2023-05-14T12:34:21.954Z,3.20
2023-05-14T12:36:51.472Z,3.62
2023-05-14T12:39:21.045Z,3.70
2023-05-14T12:41:50.413Z,4.63
2023-05-14T12:44:21.656Z,3.95
2023-05-14T12:46:51.347Z,5.25
2023-05-14T12:49:20.893Z,3.87
2023-05-14T12:51:56.700Z,4.40
2023-05-14T12:54:21.474Z,4.50
2023-05-14T12:56:51.137Z,4.37
2023-05-14T12:59:20.997Z,4.87
2023-05-14T13:01:50.460Z,4.05
2023-05-14T13:04:20.024Z,3.60
2023-05-14T13:06:49.614Z,3.83
2023-05-14T13:09:19.197Z,10.13
2023-05-14T13:11:48.576Z,9.10
2023-05-14T13:14:20.094Z,4.00
2023-05-14T13:16:49.426Z,14.13
2023-05-14T13:19:18.897Z,57.80
2023-05-14T13:21:48.400Z,32.88
2023-05-14T13:24:19.265Z,19.40
2023-05-14T13:26:48.652Z,11.83
2023-05-14T13:29:18.116Z,5.20
2023-05-14T13:31:47.913Z,3.87
2023-05-14T13:34:17.466Z,3.45
2023-05-14T13:36:47.356Z,3.90
2023-05-14T13:39:17.168Z,3.75
2023-05-14T13:41:46.528Z,3.15
2023-05-14T13:44:15.939Z,4.15
2023-05-14T13:46:45.540Z,3.42
2023-05-14T13:49:15.189Z,3.35
2023-05-14T13:51:44.729Z,3.43
2023-05-14T13:54:14.275Z,3.70
2023-05-14T13:56:43.780Z,3.33
2023-05-14T13:59:13.328Z,3.00
2023-05-14T14:01:45.743Z,3.70
2023-05-14T14:04:16.361Z,4.95
2023-05-14T14:06:45.739Z,29.32
2023-05-14T14:09:15.157Z,6.67
2023-05-14T14:11:44.672Z,3.12
2023-05-14T14:14:14.210Z,4.47
2023-05-14T14:16:43.753Z,3.87
2023-05-14T14:19:14.003Z,4.83
2023-05-14T14:21:44.418Z,4.35
2023-05-14T14:24:13.847Z,5.50
2023-05-14T14:26:43.307Z,5.27
2023-05-14T14:29:12.786Z,5.37
2023-05-14T14:31:43.438Z,6.30
2023-05-14T14:34:12.910Z,5.75
2023-05-14T14:36:42.320Z,6.00
2023-05-14T14:39:11.754Z,5.00
2023-05-14T14:41:41.170Z,5.50
2023-05-14T14:44:10.753Z,4.97
2023-05-14T14:46:40.174Z,5.15
2023-05-14T14:49:09.860Z,5.37
2023-05-14T14:51:39.649Z,4.42
2023-05-14T14:54:09.036Z,5.28
2023-05-14T14:56:44.354Z,5.17
2023-05-14T14:59:13.854Z,4.85
2023-05-14T15:01:43.640Z,5.60
2023-05-14T15:04:13.205Z,5.37
2023-05-14T15:06:42.734Z,5.83
2023-05-14T15:09:12.122Z,4.67
2023-05-14T15:11:42.070Z,5.33
2023-05-14T15:14:11.530Z,5.00
2023-05-14T15:16:41.122Z,4.70
2023-05-14T15:19:10.798Z,4.97
2023-05-14T15:21:40.827Z,5.55
2023-05-14T15:24:13.265Z,5.80
2023-05-14T15:26:42.951Z,4.28
2023-05-14T15:29:12.426Z,5.78
2023-05-14T15:31:41.985Z,4.63
2023-05-14T15:34:11.339Z,4.57
2023-05-14T15:36:40.935Z,5.33
2023-05-14T15:39:12.954Z,5.85
2023-05-14T15:41:42.477Z,4.87
2023-05-14T15:44:12.017Z,6.93
2023-05-14T15:46:41.562Z,5.63
2023-05-14T15:49:11.060Z,4.62
2023-05-14T15:51:40.622Z,4.73
2023-05-14T15:54:10.182Z,5.00
2023-05-14T15:56:39.764Z,5.73
2023-05-14T15:59:09.323Z,4.47
2023-05-14T16:01:38.781Z,5.47
2023-05-14T16:04:08.154Z,4.97
2023-05-14T16:06:39.600Z,5.58
2023-05-14T16:09:09.388Z,5.85
2023-05-14T16:11:38.940Z,4.67
2023-05-14T16:14:08.329Z,4.73
2023-05-14T16:16:38.386Z,5.20
2023-05-14T16:19:08.005Z,5.28
2023-05-14T16:21:37.469Z,4.20
2023-05-14T16:24:07.437Z,5.45
2023-05-14T16:26:36.912Z,4.65
2023-05-14T16:29:06.542Z,5.13
2023-05-14T16:31:36.041Z,4.30
2023-05-14T16:34:05.497Z,4.57
2023-05-14T16:36:34.979Z,4.87
2023-05-14T16:39:08.234Z,4.28
2023-05-14T16:41:36.216Z,5.15
2023-05-14T16:44:05.925Z,5.15
2023-05-14T16:46:35.391Z,4.75
2023-05-14T16:49:04.856Z,5.43
2023-05-14T16:51:34.213Z,4.87
2023-05-14T16:54:04.053Z,3.83
2023-05-14T16:56:33.456Z,5.35
2023-05-14T16:59:02.883Z,4.60
2023-05-14T17:04:02.032Z,4.70
2023-05-14T17:06:31.906Z,3.87
2023-05-14T17:09:01.329Z,4.00
2023-05-14T17:11:30.870Z,4.15
2023-05-14T17:14:00.391Z,3.90
2023-05-14T17:16:30.125Z,4.50
2023-05-14T17:18:59.617Z,5.20
2023-05-14T17:21:29.069Z,4.37
2023-05-14T17:23:58.862Z,5.13
2023-05-14T17:26:28.466Z,5.25
2023-05-14T17:28:57.896Z,4.42
2023-05-14T17:31:27.368Z,4.00
2023-05-14T17:33:56.785Z,4.67
2023-05-14T17:36:28.364Z,4.47
2023-05-14T17:38:57.859Z,5.47
2023-05-14T17:41:27.498Z,4.47
2023-05-14T17:43:56.859Z,4.83
2023-05-14T17:46:26.468Z,5.08
2023-05-14T17:49:00.255Z,4.43
2023-05-14T17:51:31.112Z,4.92
2023-05-14T17:54:00.659Z,4.83
2023-05-14T17:56:30.369Z,4.87
2023-05-14T17:58:59.783Z,3.75
2023-05-14T18:01:29.295Z,5.03
2023-05-14T18:03:58.852Z,4.62
2023-05-14T18:06:28.459Z,5.03
2023-05-14T18:08:57.877Z,5.40
2023-05-14T18:11:29.097Z,4.83
2023-05-14T18:13:58.600Z,4.72
2023-05-14T18:16:28.278Z,5.33
2023-05-14T18:18:57.741Z,5.33
2023-05-14T18:21:27.536Z,4.57
2023-05-14T18:23:56.921Z,3.70
2023-05-14T18:26:26.751Z,5.67
2023-05-14T18:28:56.247Z,4.17
2023-05-14T18:31:27.869Z,4.30
2023-05-14T18:33:57.552Z,5.17
2023-05-14T18:36:27.041Z,4.85
2023-05-14T18:38:56.493Z,4.80
2023-05-14T18:41:26.002Z,3.87
2023-05-14T18:43:55.518Z,4.70
2023-05-14T18:46:25.804Z,5.13
2023-05-14T18:51:23.994Z,5.12
2023-05-14T18:53:53.421Z,5.57
2023-05-14T18:56:23.054Z,5.33
2023-05-14T18:58:54.184Z,4.65
2023-05-14T19:01:25.422Z,4.37
2023-05-14T19:03:54.985Z,4.55
2023-05-14T19:06:24.834Z,4.08
2023-05-14T19:08:54.316Z,3.98
2023-05-14T19:11:23.760Z,4.72
2023-05-14T19:13:53.187Z,5.28
2023-05-14T19:16:23.130Z,5.08
2023-05-14T19:18:52.626Z,4.37
2023-05-14T19:21:22.070Z,4.20
2023-05-14T19:23:51.445Z,5.37
2023-05-14T19:26:21.697Z,4.95
2023-05-14T19:28:52.770Z,4.25
2023-05-14T19:31:22.217Z,6.25
2023-05-14T19:33:53.180Z,4.57
2023-05-14T19:36:22.948Z,4.58
2023-05-14T19:38:52.370Z,4.83
2023-05-14T19:41:21.848Z,5.23
2023-05-14T19:43:51.279Z,4.40
2023-05-14T19:46:20.958Z,3.90
2023-05-14T19:48:50.548Z,4.72
2023-05-14T19:51:20.102Z,4.43
2023-05-14T19:53:49.664Z,5.33
2023-05-14T19:56:19.095Z,4.53
2023-05-14T19:58:48.586Z,4.28
2023-05-14T20:01:18.836Z,4.42
2023-05-14T20:06:17.624Z,4.17
2023-05-14T20:08:47.020Z,4.08
2023-05-14T20:11:17.881Z,4.33
2023-05-14T20:13:47.474Z,3.72
2023-05-14T20:16:17.211Z,3.57
2023-05-14T20:18:46.753Z,4.97
2023-05-14T20:21:16.155Z,3.37
2023-05-14T20:23:45.613Z,3.55
2023-05-14T20:26:15.179Z,4.45
2023-05-14T20:28:44.708Z,4.35
2023-05-14T20:31:14.187Z,4.03
2023-05-14T20:33:43.867Z,4.13
2023-05-14T20:36:13.288Z,4.12
2023-05-14T20:38:42.764Z,4.15
2023-05-14T20:41:12.195Z,4.77
2023-05-14T20:43:41.619Z,4.57
2023-05-14T20:46:11.115Z,4.67
2023-05-14T20:48:40.484Z,3.80
2023-05-14T20:51:09.831Z,4.33
2023-05-14T20:53:39.286Z,4.80
2023-05-14T20:56:08.890Z,3.83
2023-05-14T20:58:38.461Z,4.30
2023-05-14T21:01:08.143Z,4.17
2023-05-14T21:03:38.030Z,3.20
2023-05-14T21:06:07.822Z,4.05
2023-05-14T21:08:39.207Z,3.95
2023-05-14T21:11:08.762Z,3.80
2023-05-14T21:13:38.116Z,3.90
2023-05-14T21:16:07.914Z,4.97
2023-05-14T21:18:37.428Z,3.40
2023-05-14T21:21:07.733Z,4.28
2023-05-14T21:23:37.152Z,4.15
2023-05-14T21:26:06.636Z,3.83
2023-05-14T21:28:36.197Z,3.30
2023-05-14T21:31:05.972Z,3.77
2023-05-14T21:33:35.429Z,2.95
2023-05-14T21:36:05.228Z,3.70
2023-05-14T21:38:34.967Z,3.58
2023-05-14T21:41:04.329Z,3.67
2023-05-14T21:43:33.946Z,4.28
2023-05-14T21:46:03.459Z,3.40
2023-05-14T21:48:33.031Z,4.10
2023-05-14T21:51:02.560Z,4.08
2023-05-14T21:53:32.007Z,3.70
2023-05-14T21:56:01.444Z,3.27
2023-05-14T21:58:30.973Z,3.75
2023-05-14T22:01:00.384Z,3.53
2023-05-14T22:03:30.051Z,3.00
2023-05-14T22:05:59.474Z,3.20
2023-05-14T22:08:30.665Z,3.20
2023-05-14T22:11:00.060Z,4.25
2023-05-14T22:13:29.476Z,3.40
2023-05-14T22:16:09.090Z,3.65
2023-05-14T22:18:30.101Z,3.62
2023-05-14T22:20:59.541Z,3.77
2023-05-14T22:23:29.022Z,3.67
2023-05-14T22:25:59.176Z,3.33
2023-05-14T22:28:28.725Z,3.45
2023-05-14T22:30:59.731Z,3.83
2023-05-14T22:33:29.385Z,3.35
2023-05-14T22:35:58.841Z,3.57
2023-05-14T22:38:28.265Z,3.62
2023-05-14T22:40:57.672Z,3.98
2023-05-14T22:43:27.229Z,3.77
2023-05-14T22:45:56.796Z,3.40
2023-05-14T22:48:26.348Z,4.67
2023-05-14T22:50:55.774Z,4.67
2023-05-14T22:53:25.421Z,3.15
2023-05-14T22:55:54.994Z,3.65
2023-05-14T22:58:24.505Z,5.30
2023-05-14T23:00:53.979Z,4.17
2023-05-14T23:03:23.450Z,3.23
2023-05-14T23:05:53.375Z,3.47
2023-05-14T23:08:22.860Z,3.87
2023-05-14T23:10:52.289Z,3.90
2023-05-14T23:13:21.809Z,4.25
2023-05-14T23:15:51.230Z,4.63
2023-05-14T23:18:20.910Z,4.12
2023-05-14T23:20:50.756Z,4.95
2023-05-14T23:23:20.176Z,4.37
2023-05-14T23:25:50.643Z,4.37
2023-05-14T23:30:48.647Z,4.92
2023-05-14T23:33:18.796Z,4.05
2023-05-14T23:35:48.969Z,4.90
2023-05-14T23:38:18.522Z,4.40
2023-05-14T23:40:47.901Z,4.20
2023-05-14T23:43:17.394Z,4.70
2023-05-14T23:45:46.939Z,5.00
2023-05-14T23:48:16.464Z,4.70
2023-05-14T23:50:45.975Z,4.23
2023-05-14T23:53:15.485Z,4.80
2023-05-14T23:55:44.847Z,4.53
2023-05-14T23:58:14.367Z,5.03
